Flight Track Log - Related Links

Times and Time Zones

All times are in EDT time to prevent confusion due to time zone crossing. See the NLY2771 flight status page for this flight to view local times or setup timezone preferences in your user account.

Time Position Orientation Groundspeed Altitude Reporting Facility
EDT Latitude Longitude Course Direction KTS MPH feet Rate Location/Type
Mon 03:01:15 AM 41.1824 9.6761 348° North  Level Estimated
Mon 03:02:15 AM 41.2697 9.7251 346° North  Level Estimated
Mon 03:03:15 AM 41.3570 9.7742 344° North  Level Estimated
Mon 03:04:15 AM 41.4442 9.8235 342° North  Level Estimated
Mon 03:05:15 AM 41.5314 9.8729 339° North  Level Estimated
Mon 03:06:15 AM 41.6186 9.9225 337° Northwest  Level Estimated
Mon 03:07:15 AM 41.7058 9.9722 334° Northwest  Level Estimated
Mon 03:08:15 AM 41.7929 10.0220 330° Northwest  Level Estimated
Mon 03:09:15 AM 41.8800 10.0720 327° Northwest  Level Estimated
Mon 03:10:15 AM 41.9671 10.1221 323° Northwest  Level Estimated
Mon 03:11:15 AM 42.0542 10.1723 319° Northwest  Level Estimated
Mon 03:12:15 AM 42.1413 10.2227 314° West  Level Estimated
Mon 03:18:09 AM 42.8966 9.1656 North 495 570 34,500  Level FlightAware ADS-B
Mon 03:18:40 AM 42.9666 9.1672 North 491 565 35,100 984 Climbing FlightAware ADS-B
Mon 03:19:10 AM 43.0355 9.1689 North 490 564 35,500 1,200 Climbing FlightAware ADS-B
Mon 03:19:40 AM 43.1036 9.1705 North 481 554 36,300 1,180 Climbing FlightAware ADS-B
Mon 03:20:11 AM 43.1718 9.1721 North 480 552 36,700 774 Climbing FlightAware ADS-B
Mon 03:20:42 AM 43.2404 9.1738 360° North 478 550 37,100 750 Climbing FlightAware ADS-B
Mon 03:20:51 AM 43.2611 9.1740 358° North 478 550 37,200 429 Climbing FlightAware ADS-B
Mon 03:21:10 AM 43.3021 9.1718 355° North 480 552 37,300 188 Climbing FlightAware ADS-B
Mon 03:21:23 AM 43.3311 9.1681 352° North 482 555 37,300 214 Level FlightAware ADS-B
Mon 03:21:38 AM 43.3646 9.1615 348° North 482 555 37,400 391 Climbing FlightAware ADS-B
Mon 03:22:09 AM 43.4318 9.1411 346° North 481 554 37,600 429 Climbing FlightAware ADS-B
Mon 03:22:34 AM 43.4862 9.1224 351° North 482 555 37,800 474 Climbing FlightAware ADS-B
Mon 03:22:47 AM 43.5131 9.1162 358° North 484 557 37,900 480 Climbing FlightAware ADS-B
Mon 03:22:59 AM 43.5418 9.1147 North 487 560 38,000 316 Climbing FlightAware ADS-B
Mon 03:23:06 AM 43.5574 9.1161 10° North 487 560 38,000  Level FlightAware ADS-B
Mon 03:23:18 AM 43.5831 9.1222 18° North 489 563 38,000  Level FlightAware ADS-B
Mon 03:23:48 AM 43.6484 9.1511 19° North 492 566 38,000  Level FlightAware ADS-B
Mon 03:24:18 AM 43.7130 9.1811 19° North 490 564 38,000  Level FlightAware ADS-B
Mon 03:24:48 AM 43.7775 9.2110 19° North 491 565 38,000  Level FlightAware ADS-B
Mon 03:25:18 AM 43.8424 9.2414 19° North 491 565 38,000  Level FlightAware ADS-B
Mon 03:25:49 AM 43.9087 9.2726 19° North 490 564 38,000  Level FlightAware ADS-B
Mon 03:26:19 AM 43.9734 9.3031 19° North 489 563 38,000  Level FlightAware ADS-B
Mon 03:27:09 AM 44.0792 9.3529 19° North 489 563 38,000  Level FlightAware ADS-B
Mon 03:27:58 AM 44.1862 9.4035 19° North 490 564 38,000  Level FlightAware ADS-B
Mon 03:28:30 AM 44.2540 9.4358 19° North 490 564 38,000  Level FlightAware ADS-B
Mon 03:29:00 AM 44.3189 9.4667 19° North 490 564 38,000  Level FlightAware ADS-B
Mon 03:29:31 AM 44.3844 9.4979 19° North 489 563 38,000  Level FlightAware ADS-B
Mon 03:30:03 AM 44.4526 9.5305 19° North 489 563 38,000  Level FlightAware ADS-B
Mon 03:30:37 AM 44.5264 9.5659 20° North 487 560 38,000  Level FlightAware ADS-B
Mon 03:31:10 AM 44.5953 9.6007 23° Northeast 487 560 38,000  Level FlightAware ADS-B
Mon 03:31:20 AM 44.6170 9.6138 39° Northeast 485 558 38,000  Level FlightAware ADS-B
Mon 03:39:15 AM 45.1942 10.2900 40° Northeast  Level Estimated
Mon 03:40:15 AM 45.2668 10.3764 40° Northeast  Level Estimated
Mon 03:41:15 AM 45.3394 10.4630 40° Northeast  Level Estimated
Mon 03:42:15 AM 45.4119 10.5498 40° Northeast  Level Estimated
Mon 03:43:15 AM 45.4843 10.6369 40° Northeast  Level Estimated
Mon 03:44:15 AM 45.5567 10.7241 40° Northeast  Level Estimated
Mon 03:45:15 AM 45.6290 10.8117 40° Northeast  Level Estimated
Mon 03:46:15 AM 45.7012 10.8994 40° Northeast  Level Estimated
Mon 03:47:15 AM 45.7734 10.9873 40° Northeast  Level Estimated
Mon 03:48:15 AM 45.8455 11.0755 40° Northeast  Level Estimated
Mon 03:49:15 AM 45.9175 11.1639 41° Northeast  Level Estimated
Mon 03:50:15 AM 45.9895 11.2526 41° Northeast  Level Estimated
Mon 03:51:15 AM 46.0614 11.3414 41° Northeast  Level Estimated
Mon 03:52:15 AM 46.1332 11.4305 41° Northeast  Level Estimated
Mon 03:53:15 AM 46.2049 11.5199 41° Northeast  Level Estimated
Mon 03:54:15 AM 46.2766 11.6094 41° Northeast  Level Estimated
Mon 03:55:15 AM 46.3482 11.6992 41° Northeast  Level Estimated
Mon 03:56:15 AM 46.4198 11.7893 41° Northeast  Level Estimated
Mon 03:57:15 AM 46.4912 11.8795 41° Northeast  Level Estimated
Mon 03:58:15 AM 46.5626 11.9700 41° Northeast  Level Estimated
Mon 03:59:15 AM 46.6339 12.0608 41° Northeast  Level Estimated
Mon 04:00:15 AM 46.7052 12.1518 41° Northeast  Level Estimated
Mon 04:01:15 AM 46.7764 12.2430 41° Northeast  Level Estimated
Mon 04:02:15 AM 46.8475 12.3345 41° Northeast  Level Estimated
Mon 04:03:15 AM 46.9185 12.4262 41° Northeast  Level Estimated
Mon 04:04:15 AM 46.9895 12.5182 42° Northeast  Level Estimated
Mon 04:05:15 AM 47.0604 12.6104 42° Northeast  Level Estimated
Mon 04:06:15 AM 47.1312 12.7028 42° Northeast  Level Estimated
Mon 04:07:15 AM 47.2019 12.7955 42° Northeast  Level Estimated
Mon 04:08:15 AM 47.2726 12.8884 42° Northeast  Level Estimated
Mon 04:09:15 AM 47.3432 12.9816 42° Northeast  Level Estimated
Mon 04:10:15 AM 47.4137 13.0751 42° Northeast  Level Estimated
Mon 04:11:15 AM 47.4841 13.1688 42° Northeast  Level Estimated
Mon 04:12:15 AM 47.5545 13.2627 42° Northeast  Level Estimated
Mon 04:13:15 AM 47.6248 13.3569 42° Northeast  Level Estimated
Mon 04:14:15 AM 47.6950 13.4513 42° Northeast  Level Estimated
Mon 04:15:15 AM 47.7651 13.5460 42° Northeast  Level Estimated
Mon 04:16:15 AM 47.8352 13.6410 42° Northeast  Level Estimated
Mon 04:17:15 AM 47.9052 13.7362 42° Northeast  Level Estimated
Mon 04:18:15 AM 47.9751 13.8317 42° Northeast  Level Estimated
Mon 04:19:15 AM 48.0449 13.9274 43° Northeast  Level Estimated
Mon 04:20:15 AM 48.1146 14.0234 43° Northeast  Level Estimated
Mon 04:21:15 AM 48.1843 14.1196 43° Northeast  Level Estimated
Mon 04:22:15 AM 48.2538 14.2162 223° Southwest  Level Estimated
Mon 04:23:15 AM 48.1843 14.1196 43° Northeast  Level Estimated
Mon 04:24:15 AM 48.2538 14.2162 223° Southwest  Level Estimated
Mon 04:25:15 AM 48.1843 14.1196 43° Northeast  Level Estimated
Mon 04:26:15 AM 48.2538 14.2162 223° Southwest  Level Estimated
Mon 04:27:15 AM 48.1843 14.1196 43° Northeast  Level Estimated
Mon 04:28:15 AM 48.2538 14.2162 223° Southwest  Level Estimated
Mon 04:29:15 AM 48.1843 14.1196 43° Northeast  Level Estimated
Mon 04:30:15 AM 48.2538 14.2162 43° Northeast  Level Estimated

Login

Don't have an account? Register now (free) for customized features, flight alerts, and more!